Time,TemperatureF,DewpointF,PressureIn,WindDirection,WindDirectionDegrees,WindSpeedMPH,WindSpeedGustMPH,Humidity,HourlyPrecipIn,Conditions,Clouds,dailyrainin,SoftwareType,DateUTC
2013-03-26 00:03:00,45.0,-99.9,29.82,West,261,15.0,20.0,-999,-99.99,,,-99.99,,2013-03-26 04:03:00,
2013-03-26 00:13:00,45.0,-99.9,29.82,West,262,15.0,22.0,-999,-99.99,,,-99.99,,2013-03-26 04:13:00,
2013-03-26 00:23:00,45.0,-99.9,29.82,West,262,13.0,19.0,-999,-99.99,,,-99.99,,2013-03-26 04:23:00,
2013-03-26 00:33:00,44.0,-99.9,29.83,West,262,18.0,26.0,-999,-99.99,,,-99.99,,2013-03-26 04:33:00,
2013-03-26 00:43:00,44.0,-99.9,29.83,West,268,13.0,22.0,-999,-99.99,,,-99.99,,2013-03-26 04:43:00,
2013-03-26 00:53:00,44.0,-99.9,29.83,West,266,17.0,22.0,-999,-99.99,,,-99.99,,2013-03-26 04:53:00,
2013-03-26 01:03:00,44.0,-99.9,29.83,West,274,13.0,19.0,-999,-99.99,,,-99.99,,2013-03-26 05:03:00,
2013-03-26 01:12:00,44.0,-99.9,29.84,West,274,18.0,23.0,-999,-99.99,,,-99.99,,2013-03-26 05:12:00,
2013-03-26 01:23:00,44.0,-99.9,29.84,West,274,14.0,19.0,-999,-99.99,,,-99.99,,2013-03-26 05:23:00,
2013-03-26 01:32:00,43.0,-99.9,29.85,West,269,12.0,18.0,-999,-99.99,,,-99.99,,2013-03-26 05:32:00,
2013-03-26 01:43:00,43.0,-99.9,29.85,West,270,16.0,21.0,-999,-99.99,,,-99.99,,2013-03-26 05:43:00,
2013-03-26 01:52:00,43.0,-99.9,29.85,West,273,12.0,18.0,-999,-99.99,,,-99.99,,2013-03-26 05:52:00,
2013-03-26 02:02:00,43.0,-99.9,29.85,West,271,13.0,17.0,-999,-99.99,,,-99.99,,2013-03-26 06:02:00,
2013-03-26 02:12:00,42.0,-99.9,29.85,West,278,13.0,20.0,-999,-99.99,,,-99.99,,2013-03-26 06:12:00,
2013-03-26 02:22:00,42.0,-99.9,29.86,West,268,13.0,21.0,-999,-99.99,,,-99.99,,2013-03-26 06:22:00,
2013-03-26 02:32:00,42.0,-99.9,29.86,West,269,14.0,21.0,-999,-99.99,,,-99.99,,2013-03-26 06:32:00,
2013-03-26 02:43:00,42.0,-99.9,29.86,West,271,13.0,18.0,-999,-99.99,,,-99.99,,2013-03-26 06:43:00,
2013-03-26 02:53:00,42.0,-99.9,29.86,West,268,12.0,16.0,-999,-99.99,,,-99.99,,2013-03-26 06:53:00,
2013-03-26 03:02:00,41.0,-99.9,29.86,West,269,11.0,15.0,-999,-99.99,,,-99.99,,2013-03-26 07:02:00,
2013-03-26 03:12:00,41.0,-99.9,29.86,West,273,11.0,17.0,-999,-99.99,,,-99.99,,2013-03-26 07:12:00,
2013-03-26 03:22:00,41.0,-99.9,29.86,West,267,10.0,14.0,-999,-99.99,,,-99.99,,2013-03-26 07:22:00,
2013-03-26 03:33:00,41.0,-99.9,29.86,West,269,11.0,14.0,-999,-99.99,,,-99.99,,2013-03-26 07:33:00,
2013-03-26 03:43:00,40.0,-99.9,29.87,West,271,13.0,18.0,-999,-99.99,,,-99.99,,2013-03-26 07:43:00,
2013-03-26 03:53:00,40.0,-99.9,29.87,West,274,10.0,13.0,-999,-99.99,,,-99.99,,2013-03-26 07:53:00,
2013-03-26 04:02:00,40.0,-99.9,29.87,West,274,11.0,16.0,-999,-99.99,,,-99.99,,2013-03-26 08:02:00,
2013-03-26 04:13:00,40.0,-99.9,29.87,West,267,11.0,15.0,-999,-99.99,,,-99.99,,2013-03-26 08:13:00,
2013-03-26 04:22:00,40.0,-99.9,29.87,West,271,9.0,14.0,-999,-99.99,,,-99.99,,2013-03-26 08:22:00,
2013-03-26 04:32:00,39.0,-99.9,29.87,West,274,10.0,14.0,-999,-99.99,,,-99.99,,2013-03-26 08:32:00,
2013-03-26 04:42:00,39.0,-99.9,29.88,West,275,11.0,16.0,-999,-99.99,,,-99.99,,2013-03-26 08:42:00,
2013-03-26 04:52:00,39.0,-99.9,29.88,WNW,285,14.0,18.0,-999,-99.99,,,-99.99,,2013-03-26 08:52:00,
2013-03-26 05:02:00,39.0,-99.9,29.88,West,278,13.0,17.0,-999,-99.99,,,-99.99,,2013-03-26 09:02:00,
2013-03-26 05:12:00,39.0,-99.9,29.87,WNW,287,12.0,18.0,-999,-99.99,,,-99.99,,2013-03-26 09:12:00,
2013-03-26 05:22:00,39.0,-99.9,29.87,WNW,282,14.0,22.0,-999,-99.99,,,-99.99,,2013-03-26 09:22:00,
2013-03-26 05:33:00,39.0,-99.9,29.88,WNW,289,14.0,18.0,-999,-99.99,,,-99.99,,2013-03-26 09:33:00,
2013-03-26 05:43:00,38.0,-99.9,29.88,WNW,286,13.0,16.0,-999,-99.99,,,-99.99,,2013-03-26 09:43:00,
2013-03-26 05:52:00,38.0,-99.9,29.88,WNW,285,10.0,15.0,-999,-99.99,,,-99.99,,2013-03-26 09:52:00,
2013-03-26 06:03:00,38.0,-99.9,29.88,WNW,286,13.0,18.0,-999,-99.99,,,-99.99,,2013-03-26 10:03:00,
2013-03-26 06:12:00,38.0,-99.9,29.88,WNW,287,13.0,17.0,-999,-99.99,,,-99.99,,2013-03-26 10:12:00,
2013-03-26 06:23:00,38.0,-99.9,29.88,WNW,282,11.0,14.0,-999,-99.99,,,-99.99,,2013-03-26 10:23:00,
2013-03-26 06:33:00,37.0,-99.9,29.88,WNW,284,9.0,13.0,-999,-99.99,,,-99.99,,2013-03-26 10:33:00,
2013-03-26 06:43:00,37.0,-99.9,29.89,West,281,11.0,15.0,-999,-99.99,,,-99.99,,2013-03-26 10:43:00,
2013-03-26 06:53:00,37.0,-99.9,29.89,West,276,10.0,14.0,-999,-99.99,,,-99.99,,2013-03-26 10:53:00,
2013-03-26 07:03:00,37.0,-99.9,29.90,West,281,9.0,12.0,-999,-99.99,,,-99.99,,2013-03-26 11:03:00,
2013-03-26 07:12:00,37.0,-99.9,29.90,West,280,11.0,15.0,-999,-99.99,,,-99.99,,2013-03-26 11:12:00,
2013-03-26 07:23:00,37.0,-99.9,29.90,West,281,9.0,14.0,-999,-99.99,,,-99.99,,2013-03-26 11:23:00,
2013-03-26 07:33:00,37.0,-99.9,29.90,West,272,11.0,14.0,-999,-99.99,,,-99.99,,2013-03-26 11:33:00,
2013-03-26 07:43:00,37.0,-99.9,29.90,West,280,12.0,15.0,-999,-99.99,,,-99.99,,2013-03-26 11:43:00,
2013-03-26 07:53:00,37.0,-99.9,29.90,West,281,10.0,14.0,-999,-99.99,,,-99.99,,2013-03-26 11:53:00,
2013-03-26 08:03:00,37.0,-99.9,29.90,West,281,10.0,14.0,-999,-99.99,,,-99.99,,2013-03-26 12:03:00,
2013-03-26 08:12:00,37.0,-99.9,29.91,WNW,283,11.0,16.0,-999,-99.99,,,-99.99,,2013-03-26 12:12:00,
2013-03-26 08:22:00,37.0,-99.9,29.91,West,280,11.0,14.0,-999,-99.99,,,-99.99,,2013-03-26 12:22:00,
2013-03-26 08:32:00,37.0,-99.9,29.91,WNW,289,11.0,15.0,-999,-99.99,,,-99.99,,2013-03-26 12:32:00,
2013-03-26 08:43:00,38.0,-99.9,29.91,WNW,287,12.0,17.0,-999,-99.99,,,-99.99,,2013-03-26 12:43:00,
2013-03-26 08:52:00,38.0,-99.9,29.91,WNW,295,12.0,16.0,-999,-99.99,,,-99.99,,2013-03-26 12:52:00,
2013-03-26 09:03:00,38.0,-99.9,29.92,WNW,299,11.0,15.0,-999,-99.99,,,-99.99,,2013-03-26 13:03:00,
2013-03-26 09:12:00,39.0,-99.9,29.92,WNW,293,8.0,11.0,-999,-99.99,,,-99.99,,2013-03-26 13:12:00,
2013-03-26 09:23:00,39.0,-99.9,29.92,WNW,282,11.0,14.0,-999,-99.99,,,-99.99,,2013-03-26 13:23:00,
2013-03-26 09:32:00,40.0,-99.9,29.93,WNW,293,11.0,16.0,-999,-99.99,,,-99.99,,2013-03-26 13:32:00,
2013-03-26 09:42:00,40.0,-99.9,29.93,WNW,288,10.0,13.0,-999,-99.99,,,-99.99,,2013-03-26 13:42:00,
2013-03-26 09:52:00,41.0,-99.9,29.93,West,272,9.0,12.0,-999,-99.99,,,-99.99,,2013-03-26 13:52:00,
2013-03-26 10:02:00,42.0,-99.9,29.94,WNW,297,10.0,15.0,-999,-99.99,,,-99.99,,2013-03-26 14:02:00,
2013-03-26 10:12:00,42.0,-99.9,29.93,West,280,13.0,18.0,-999,-99.99,,,-99.99,,2013-03-26 14:12:00,
2013-03-26 10:23:00,42.0,-99.9,29.93,WNW,286,12.0,17.0,-999,-99.99,,,-99.99,,2013-03-26 14:23:00,
2013-03-26 10:33:00,43.0,-99.9,29.93,NW,310,13.0,18.0,-999,-99.99,,,-99.99,,2013-03-26 14:33:00,
2013-03-26 10:42:00,44.0,-99.9,29.93,WNW,286,11.0,16.0,-999,-99.99,,,-99.99,,2013-03-26 14:42:00,
2013-03-26 10:53:00,44.0,-99.9,29.93,WNW,296,11.0,15.0,-999,-99.99,,,-99.99,,2013-03-26 14:53:00,
2013-03-26 11:02:00,45.0,-99.9,29.93,WNW,293,11.0,14.0,-999,-99.99,,,-99.99,,2013-03-26 15:02:00,
2013-03-26 11:12:00,45.0,-99.9,29.93,WNW,294,10.0,16.0,-999,-99.99,,,-99.99,,2013-03-26 15:12:00,
2013-03-26 11:22:00,45.0,-99.9,29.93,NW,312,9.0,13.0,-999,-99.99,,,-99.99,,2013-03-26 15:22:00,
2013-03-26 11:33:00,46.0,-99.9,29.93,WNW,300,7.0,11.0,-999,-99.99,,,-99.99,,2013-03-26 15:33:00,
2013-03-26 11:43:00,46.0,-99.9,29.93,NW,311,10.0,13.0,-999,-99.99,,,-99.99,,2013-03-26 15:43:00,
2013-03-26 11:53:00,46.0,-99.9,29.93,WNW,289,10.0,14.0,-999,-99.99,,,-99.99,,2013-03-26 15:53:00,
2013-03-26 12:03:00,46.0,-99.9,29.93,NW,307,9.0,11.0,-999,-99.99,,,-99.99,,2013-03-26 16:03:00,
2013-03-26 12:13:00,47.0,-99.9,29.92,West,266,10.0,13.0,-999,-99.99,,,-99.99,,2013-03-26 16:13:00,
2013-03-26 12:23:00,46.0,-99.9,29.93,WNW,286,11.0,15.0,-999,-99.99,,,-99.99,,2013-03-26 16:23:00,
2013-03-26 12:33:00,47.0,-99.9,29.93,WNW,290,11.0,16.0,-999,-99.99,,,-99.99,,2013-03-26 16:33:00,
2013-03-26 12:43:00,47.0,-99.9,29.93,West,276,11.0,15.0,-999,-99.99,,,-99.99,,2013-03-26 16:43:00,
2013-03-26 12:54:00,47.0,-99.9,29.92,WNW,302,9.0,16.0,-999,-99.99,,,-99.99,,2013-03-26 16:54:00,
2013-03-26 13:03:00,47.0,-99.9,29.92,NW,306,11.0,13.0,-999,-99.99,,,-99.99,,2013-03-26 17:03:00,
2013-03-26 13:12:00,47.0,-99.9,29.92,WNW,303,12.0,19.0,-999,-99.99,,,-99.99,,2013-03-26 17:12:00,
2013-03-26 13:23:00,47.0,-99.9,29.92,WNW,289,13.0,20.0,-999,-99.99,,,-99.99,,2013-03-26 17:23:00,
2013-03-26 13:33:00,47.0,-99.9,29.92,NW,309,10.0,15.0,-999,-99.99,,,-99.99,,2013-03-26 17:33:00,
2013-03-26 13:42:00,49.0,-99.9,29.92,WNW,286,8.0,13.0,-999,-99.99,,,-99.99,,2013-03-26 17:42:00,
2013-03-26 13:53:00,48.0,-99.9,29.92,WNW,289,14.0,18.0,-999,-99.99,,,-99.99,,2013-03-26 17:53:00,
2013-03-26 14:03:00,48.0,-99.9,29.91,West,271,9.0,13.0,-999,-99.99,,,-99.99,,2013-03-26 18:03:00,
2013-03-26 14:12:00,48.0,-99.9,29.92,NW,317,12.0,23.0,-999,-99.99,,,-99.99,,2013-03-26 18:12:00,
2013-03-26 14:23:00,48.0,-99.9,29.91,WNW,295,10.0,13.0,-999,-99.99,,,-99.99,,2013-03-26 18:23:00,
2013-03-26 14:34:00,48.0,-99.9,29.92,WNW,292,13.0,19.0,-999,-99.99,,,-99.99,,2013-03-26 18:34:00,
2013-03-26 14:42:00,48.0,-99.9,29.91,West,275,11.0,15.0,-999,-99.99,,,-99.99,,2013-03-26 18:42:00,
2013-03-26 14:53:00,48.0,-99.9,29.92,WNW,284,15.0,21.0,-999,-99.99,,,-99.99,,2013-03-26 18:53:00,
2013-03-26 15:03:00,48.0,-99.9,29.92,WNW,297,11.0,15.0,-999,-99.99,,,-99.99,,2013-03-26 19:03:00,
2013-03-26 15:12:00,48.0,-99.9,29.91,WNW,294,13.0,21.0,-999,-99.99,,,-99.99,,2013-03-26 19:12:00,
2013-03-26 15:23:00,48.0,-99.9,29.91,WNW,294,13.0,21.0,-999,-99.99,,,-99.99,,2013-03-26 19:23:00,
2013-03-26 15:33:00,48.0,-99.9,29.91,WNW,294,13.0,21.0,-999,-99.99,,,-99.99,,2013-03-26 19:33:00,
2013-03-26 15:53:00,48.0,-99.9,29.92,NW,316,14.0,18.0,-999,-99.99,,,-99.99,,2013-03-26 19:53:00,
2013-03-26 16:02:00,48.0,-99.9,29.92,WNW,295,12.0,19.0,-999,-99.99,,,-99.99,,2013-03-26 20:02:00,
2013-03-26 16:13:00,48.0,-99.9,29.92,WNW,288,13.0,18.0,-999,-99.99,,,-99.99,,2013-03-26 20:13:00,
2013-03-26 16:23:00,48.0,-99.9,29.92,WNW,290,11.0,16.0,-999,-99.99,,,-99.99,,2013-03-26 20:23:00,
2013-03-26 16:33:00,49.0,-99.9,29.92,WNW,299,14.0,19.0,-999,-99.99,,,-99.99,,2013-03-26 20:33:00,
2013-03-26 16:43:00,48.0,-99.9,29.92,WNW,294,13.0,20.0,-999,-99.99,,,-99.99,,2013-03-26 20:43:00,
2013-03-26 16:53:00,48.0,-99.9,29.93,WNW,285,16.0,20.0,-999,-99.99,,,-99.99,,2013-03-26 20:53:00,
2013-03-26 17:02:00,48.0,-99.9,29.93,NW,304,13.0,19.0,-999,-99.99,,,-99.99,,2013-03-26 21:02:00,
2013-03-26 17:13:00,49.0,-99.9,29.93,WNW,289,18.0,24.0,-999,-99.99,,,-99.99,,2013-03-26 21:13:00,
2013-03-26 17:23:00,49.0,-99.9,29.93,WNW,297,12.0,18.0,-999,-99.99,,,-99.99,,2013-03-26 21:23:00,
2013-03-26 17:33:00,49.0,-99.9,29.93,WNW,292,14.0,18.0,-999,-99.99,,,-99.99,,2013-03-26 21:33:00,
2013-03-26 17:43:00,49.0,-99.9,29.94,NW,313,17.0,23.0,-999,-99.99,,,-99.99,,2013-03-26 21:43:00,
2013-03-26 17:53:00,49.0,-99.9,29.94,WNW,303,13.0,21.0,-999,-99.99,,,-99.99,,2013-03-26 21:53:00,
2013-03-26 18:02:00,49.0,-99.9,29.95,NW,317,16.0,20.0,-999,-99.99,,,-99.99,,2013-03-26 22:02:00,
2013-03-26 18:12:00,49.0,-99.9,29.95,NW,312,12.0,16.0,-999,-99.99,,,-99.99,,2013-03-26 22:12:00,
2013-03-26 18:23:00,49.0,-99.9,29.95,NW,322,11.0,16.0,-999,-99.99,,,-99.99,,2013-03-26 22:23:00,
2013-03-26 18:33:00,49.0,-99.9,29.96,NW,315,14.0,17.0,-999,-99.99,,,-99.99,,2013-03-26 22:33:00,
2013-03-26 18:43:00,49.0,-99.9,29.96,WNW,303,12.0,17.0,-999,-99.99,,,-99.99,,2013-03-26 22:43:00,
2013-03-26 18:53:00,49.0,-99.9,29.96,NW,317,14.0,19.0,-999,-99.99,,,-99.99,,2013-03-26 22:53:00,
2013-03-26 19:01:00,49.0,-99.9,29.97,NW,311,15.0,19.0,-999,-99.99,,,-99.99,,2013-03-26 23:01:00,
2013-03-26 19:11:00,49.0,-99.9,29.97,NW,318,15.0,20.0,-999,-99.99,,,-99.99,,2013-03-26 23:11:00,
2013-03-26 19:23:00,49.0,-99.9,29.98,WNW,295,12.0,17.0,-999,-99.99,,,-99.99,,2013-03-26 23:23:00,
2013-03-26 19:32:00,48.0,-99.9,29.98,WNW,300,11.0,14.0,-999,-99.99,,,-99.99,,2013-03-26 23:32:00,
2013-03-26 19:43:00,48.0,-99.9,29.99,NW,304,10.0,12.0,-999,-99.99,,,-99.99,,2013-03-26 23:43:00,
2013-03-26 19:53:00,48.0,-99.9,29.99,WNW,290,9.0,11.0,-999,-99.99,,,-99.99,,2013-03-26 23:53:00,
2013-03-26 20:02:00,48.0,-99.9,30.00,WNW,303,7.0,9.0,-999,-99.99,,,-99.99,,2013-03-27 00:02:00,
2013-03-26 20:12:00,48.0,-99.9,30.00,WNW,293,8.0,11.0,-999,-99.99,,,-99.99,,2013-03-27 00:12:00,
2013-03-26 20:22:00,48.0,-99.9,30.01,WNW,285,7.0,10.0,-999,-99.99,,,-99.99,,2013-03-27 00:22:00,
2013-03-26 20:33:00,48.0,-99.9,30.01,West,271,7.0,9.0,-999,-99.99,,,-99.99,,2013-03-27 00:33:00,
2013-03-26 20:43:00,47.0,-99.9,30.02,West,276,7.0,9.0,-999,-99.99,,,-99.99,,2013-03-27 00:43:00,
2013-03-26 20:52:00,47.0,-99.9,30.02,West,276,7.0,11.0,-999,-99.99,,,-99.99,,2013-03-27 00:52:00,
2013-03-26 21:02:00,47.0,-99.9,30.02,West,280,7.0,10.0,-999,-99.99,,,-99.99,,2013-03-27 01:02:00,
2013-03-26 21:12:00,46.0,-99.9,30.03,West,276,6.0,9.0,-999,-99.99,,,-99.99,,2013-03-27 01:12:00,
2013-03-26 21:23:00,46.0,-99.9,30.03,West,276,7.0,9.0,-999,-99.99,,,-99.99,,2013-03-27 01:23:00,
2013-03-26 21:33:00,46.0,-99.9,30.04,West,271,7.0,9.0,-999,-99.99,,,-99.99,,2013-03-27 01:33:00,
2013-03-26 21:43:00,46.0,-99.9,30.04,West,268,6.0,9.0,-999,-99.99,,,-99.99,,2013-03-27 01:43:00,
2013-03-26 21:53:00,46.0,-99.9,30.05,West,268,6.0,8.0,-999,-99.99,,,-99.99,,2013-03-27 01:53:00,
2013-03-26 22:03:00,46.0,-99.9,30.05,West,265,7.0,9.0,-999,-99.99,,,-99.99,,2013-03-27 02:03:00,
2013-03-26 22:12:00,46.0,-99.9,30.06,West,268,6.0,10.0,-999,-99.99,,,-99.99,,2013-03-27 02:12:00,
2013-03-26 22:22:00,46.0,-99.9,30.06,West,268,6.0,9.0,-999,-99.99,,,-99.99,,2013-03-27 02:22:00,
2013-03-26 22:32:00,45.0,-99.9,30.06,West,266,7.0,8.0,-999,-99.99,,,-99.99,,2013-03-27 02:32:00,
2013-03-26 22:43:00,45.0,-99.9,30.06,West,270,6.0,9.0,-999,-99.99,,,-99.99,,2013-03-27 02:43:00,
2013-03-26 22:53:00,45.0,-99.9,30.07,West,273,6.0,8.0,-999,-99.99,,,-99.99,,2013-03-27 02:53:00,
2013-03-26 23:02:00,45.0,-99.9,30.07,West,271,6.0,10.0,-999,-99.99,,,-99.99,,2013-03-27 03:02:00,
2013-03-26 23:12:00,45.0,-99.9,30.07,West,272,6.0,9.0,-999,-99.99,,,-99.99,,2013-03-27 03:12:00,
2013-03-26 23:22:00,45.0,-99.9,30.07,West,275,7.0,9.0,-999,-99.99,,,-99.99,,2013-03-27 03:22:00,
2013-03-26 23:33:00,44.0,-99.9,30.07,West,276,6.0,8.0,-999,-99.99,,,-99.99,,2013-03-27 03:33:00,
2013-03-26 23:43:00,44.0,-99.9,30.07,West,271,6.0,8.0,-999,-99.99,,,-99.99,,2013-03-27 03:43:00,
2013-03-26 23:53:00,44.0,-99.9,30.07,West,273,6.0,9.0,-999,-99.99,,,-99.99,,2013-03-27 03:53:00,